createdAt,value
2023-04-08T00:02:13.792Z,2.30
2023-04-08T00:04:40.817Z,2.78
2023-04-08T00:07:08.111Z,3.30
2023-04-08T00:09:35.114Z,2.88
2023-04-08T00:12:02.332Z,2.42
2023-04-08T00:14:29.261Z,3.22
2023-04-08T00:16:56.294Z,3.22
2023-04-08T00:19:23.219Z,3.47
2023-04-08T00:21:50.189Z,3.45
2023-04-08T00:24:17.931Z,3.25
2023-04-08T00:26:44.928Z,3.50
2023-04-08T00:29:11.891Z,3.22
2023-04-08T00:31:38.997Z,2.72
2023-04-08T00:34:05.970Z,3.38
2023-04-08T00:36:32.932Z,3.67
2023-04-08T00:38:59.795Z,3.50
2023-04-08T00:41:26.786Z,3.40
2023-04-08T00:43:54.649Z,3.53
2023-04-08T00:46:22.288Z,3.30
2023-04-08T00:48:49.489Z,3.28
2023-04-08T00:51:18.323Z,3.47
2023-04-08T00:53:45.471Z,2.83
2023-04-08T00:56:18.023Z,3.35
2023-04-08T00:59:25.661Z,3.88
2023-04-08T01:02:30.240Z,3.53
2023-04-08T01:07:37.012Z,3.30
2023-04-08T01:10:12.735Z,3.15
2023-04-08T01:13:03.804Z,3.65
2023-04-08T01:15:31.047Z,3.58
2023-04-08T01:17:58.903Z,3.78
2023-04-08T01:20:26.821Z,3.33
2023-04-08T01:23:08.715Z,3.38
2023-04-08T01:25:36.990Z,3.25
2023-04-08T01:28:15.858Z,3.88
2023-04-08T01:30:43.189Z,3.17
2023-04-08T01:33:14.626Z,3.15
2023-04-08T01:35:41.820Z,3.88
2023-04-08T01:38:09.980Z,3.50
2023-04-08T01:40:38.011Z,3.78
2023-04-08T01:43:06.460Z,3.05
2023-04-08T01:45:33.447Z,3.78
2023-04-08T01:48:00.879Z,3.78
2023-04-08T01:50:28.104Z,4.05
2023-04-08T01:52:54.993Z,4.07
2023-04-08T01:55:22.056Z,3.80
2023-04-08T01:57:52.765Z,3.58
2023-04-08T02:00:23.726Z,3.67
2023-04-08T02:02:51.074Z,3.25
2023-04-08T02:05:18.422Z,4.15
2023-04-08T02:07:48.382Z,3.83
2023-04-08T02:10:15.908Z,4.65
2023-04-08T02:12:44.204Z,4.25
2023-04-08T02:15:12.420Z,3.92
2023-04-08T02:17:59.763Z,3.88
2023-04-08T02:20:32.658Z,3.85
2023-04-08T02:23:21.855Z,3.67
2023-04-08T02:25:50.098Z,3.40
2023-04-08T02:28:18.421Z,3.40
2023-04-08T02:30:49.431Z,4.53
2023-04-08T02:33:17.005Z,3.13
2023-04-08T02:35:44.027Z,4.45
2023-04-08T02:38:11.261Z,4.18
2023-04-08T02:40:38.214Z,4.47
2023-04-08T02:43:05.275Z,3.47
2023-04-08T02:45:33.865Z,3.70
2023-04-08T02:48:01.339Z,3.70
2023-04-08T02:50:28.393Z,4.28
2023-04-08T02:52:56.014Z,4.07
2023-04-08T02:55:22.970Z,4.13
2023-04-08T02:57:49.935Z,4.05
2023-04-08T03:00:17.529Z,3.53
2023-04-08T03:02:44.580Z,4.28
2023-04-08T03:05:11.880Z,3.60
2023-04-08T03:07:39.960Z,3.83
2023-04-08T03:10:07.701Z,3.67
2023-04-08T03:12:34.673Z,3.92
2023-04-08T03:15:02.010Z,4.07
2023-04-08T03:17:30.991Z,4.28
2023-04-08T03:19:57.993Z,3.72
2023-04-08T03:22:24.921Z,4.43
2023-04-08T03:24:51.997Z,3.55
2023-04-08T03:27:18.907Z,3.65
2023-04-08T03:29:46.749Z,4.65
2023-04-08T03:32:13.997Z,4.47
2023-04-08T03:34:40.831Z,4.07
2023-04-08T03:37:07.989Z,4.25
2023-04-08T03:39:37.369Z,5.10
2023-04-08T03:42:04.428Z,4.22
2023-04-08T03:44:31.377Z,3.95
2023-04-08T03:46:58.316Z,3.70
2023-04-08T03:49:25.379Z,4.00
2023-04-08T03:51:52.293Z,3.92
2023-04-08T03:54:19.220Z,4.18
2023-04-08T03:56:46.189Z,3.47
2023-04-08T03:59:13.136Z,4.00
2023-04-08T04:01:41.934Z,4.57
2023-04-08T04:04:09.210Z,4.20
2023-04-08T04:06:36.399Z,4.15
2023-04-08T04:09:03.380Z,5.07
2023-04-08T04:11:30.463Z,5.80
2023-04-08T04:13:57.368Z,5.10
2023-04-08T04:16:24.242Z,4.60
2023-04-08T04:18:53.424Z,4.75
2023-04-08T04:21:20.577Z,4.43
2023-04-08T04:23:47.529Z,4.75
2023-04-08T04:26:15.345Z,4.93
2023-04-08T04:28:44.990Z,4.85
2023-04-08T04:31:22.234Z,4.47
2023-04-08T04:33:49.561Z,4.63
2023-04-08T04:36:16.547Z,5.85
2023-04-08T04:38:44.108Z,4.78
2023-04-08T04:41:11.163Z,4.32
2023-04-08T04:43:38.322Z,5.25
2023-04-08T04:46:07.315Z,5.45
2023-04-08T04:48:37.006Z,5.15
2023-04-08T04:51:03.957Z,4.55
2023-04-08T04:53:31.793Z,4.72
2023-04-08T04:56:01.299Z,4.60
2023-04-08T04:58:31.067Z,4.25
2023-04-08T05:00:58.216Z,4.13
2023-04-08T05:03:25.171Z,4.05
2023-04-08T05:05:53.174Z,5.07
2023-04-08T05:08:20.767Z,5.15
2023-04-08T05:10:50.228Z,4.35
2023-04-08T05:13:18.064Z,4.25
2023-04-08T05:15:48.005Z,3.80
2023-04-08T05:18:15.076Z,4.78
2023-04-08T05:20:44.492Z,3.88
2023-04-08T05:23:11.395Z,4.03
2023-04-08T05:25:38.400Z,4.07
2023-04-08T05:28:05.767Z,4.20
2023-04-08T05:30:32.690Z,4.30
2023-04-08T05:33:00.722Z,4.75
2023-04-08T05:35:31.009Z,4.43
2023-04-08T05:38:00.891Z,4.25
2023-04-08T05:40:27.889Z,3.92
2023-04-08T05:42:54.806Z,4.90
2023-04-08T05:45:21.677Z,4.22
2023-04-08T05:47:48.694Z,4.43
2023-04-08T05:50:15.923Z,3.47
2023-04-08T05:52:45.961Z,3.90
2023-04-08T05:55:15.170Z,4.03
2023-04-08T05:57:42.052Z,4.68
2023-04-08T06:00:10.107Z,3.80
2023-04-08T06:02:37.471Z,4.10
2023-04-08T06:05:09.332Z,4.00
2023-04-08T06:07:36.125Z,4.25
2023-04-08T06:10:03.354Z,3.65
2023-04-08T06:12:30.415Z,4.18
2023-04-08T06:14:57.400Z,3.63
2023-04-08T06:17:24.360Z,4.57
2023-04-08T06:19:51.332Z,3.13
2023-04-08T06:22:18.281Z,4.18
2023-04-08T06:24:45.986Z,3.78
2023-04-08T06:27:16.147Z,3.72
2023-04-08T06:29:43.336Z,4.50
2023-04-08T06:32:10.895Z,4.97
2023-04-08T06:34:38.319Z,4.65
2023-04-08T06:37:06.455Z,4.97
2023-04-08T06:39:33.673Z,3.80
2023-04-08T06:42:00.617Z,5.95
2023-04-08T06:44:27.548Z,4.68
2023-04-08T06:46:54.425Z,5.63
2023-04-08T06:49:21.721Z,5.80
2023-04-08T06:51:49.050Z,5.68
2023-04-08T06:54:15.938Z,6.00
2023-04-08T06:56:43.103Z,5.80
2023-04-08T06:59:10.045Z,5.90
2023-04-08T07:01:37.129Z,5.75
2023-04-08T07:04:04.198Z,5.13
2023-04-08T07:06:31.258Z,5.45
2023-04-08T07:08:58.110Z,5.38
2023-04-08T07:11:25.076Z,5.72
2023-04-08T07:13:52.588Z,5.60
2023-04-08T07:16:19.631Z,5.18
2023-04-08T07:18:47.606Z,5.05
2023-04-08T07:21:14.491Z,5.70
2023-04-08T07:23:41.451Z,4.95
2023-04-08T07:26:08.656Z,4.47
2023-04-08T07:28:35.563Z,4.82
2023-04-08T07:31:13.459Z,4.63
2023-04-08T07:33:40.446Z,6.20
2023-04-08T07:36:07.406Z,5.38
2023-04-08T07:38:34.373Z,4.72
2023-04-08T07:41:01.359Z,5.20
2023-04-08T07:43:28.277Z,4.93
2023-04-08T07:46:03.702Z,5.20
2023-04-08T07:48:31.567Z,5.22
2023-04-08T07:51:10.014Z,5.07
2023-04-08T07:53:38.082Z,5.55
2023-04-08T07:56:11.585Z,4.43
2023-04-08T07:58:38.759Z,5.28
2023-04-08T08:01:47.226Z,4.75
2023-04-08T08:04:14.563Z,5.32
2023-04-08T08:06:41.704Z,4.90
2023-04-08T08:09:08.972Z,4.85
2023-04-08T08:39:32.222Z,2.35
2023-04-08T08:41:59.498Z,2.75
2023-04-08T08:44:27.531Z,3.88
2023-04-08T08:46:54.596Z,4.30
2023-04-08T08:49:21.707Z,3.35
2023-04-08T08:51:49.218Z,3.45
2023-04-08T08:54:17.917Z,3.78
2023-04-08T08:56:45.588Z,3.10
2023-04-08T08:59:12.596Z,4.43
2023-04-08T09:01:45.292Z,3.20
2023-04-08T09:04:17.625Z,3.42
2023-04-08T09:06:50.323Z,3.75
2023-04-08T09:09:18.019Z,3.80
2023-04-08T09:11:48.371Z,3.45
2023-04-08T09:14:25.684Z,3.72
2023-04-08T09:16:53.165Z,3.20
2023-04-08T09:19:20.544Z,3.88
2023-04-08T09:22:04.594Z,2.83
2023-04-08T09:24:32.178Z,3.53
2023-04-08T09:26:59.296Z,3.08
2023-04-08T09:29:28.142Z,2.95
2023-04-08T09:31:58.366Z,2.25
2023-04-08T09:34:28.934Z,3.05
2023-04-08T09:36:57.577Z,2.33
2023-04-08T09:39:24.791Z,2.30
2023-04-08T09:41:52.484Z,1.60
2023-04-08T09:44:23.758Z,1.63
2023-04-08T09:46:50.868Z,1.92
2023-04-08T09:49:34.322Z,2.22
2023-04-08T09:52:08.891Z,2.70
2023-04-08T09:54:57.988Z,1.67
2023-04-08T09:57:43.764Z,1.40
2023-04-08T10:00:15.627Z,1.52
2023-04-08T10:03:23.626Z,1.48
2023-04-08T10:05:51.018Z,1.60
2023-04-08T10:08:18.026Z,1.30
2023-04-08T10:10:46.173Z,1.50
2023-04-08T10:13:16.369Z,1.55
2023-04-08T10:15:45.963Z,2.95
2023-04-08T10:18:14.397Z,1.80
2023-04-08T10:20:42.508Z,1.67
2023-04-08T10:23:10.991Z,1.63
2023-04-08T10:25:41.834Z,1.77
2023-04-08T10:28:12.134Z,2.08
2023-04-08T10:30:45.156Z,1.92
2023-04-08T10:33:14.630Z,2.40
2023-04-08T10:35:43.609Z,1.45
2023-04-08T10:38:11.886Z,1.65
2023-04-08T10:40:39.441Z,1.73
2023-04-08T10:43:06.589Z,2.05
2023-04-08T10:45:33.794Z,1.83
2023-04-08T10:48:30.461Z,1.73
2023-04-08T10:51:10.004Z,2.55
2023-04-08T10:53:38.212Z,2.20
2023-04-08T10:56:22.088Z,2.05
2023-04-08T10:58:52.861Z,2.55
2023-04-08T11:01:20.303Z,2.35
2023-04-08T11:03:50.279Z,1.52
2023-04-08T11:06:20.419Z,2.20
2023-04-08T11:08:50.551Z,2.08
2023-04-08T11:11:17.728Z,2.40
2023-04-08T11:13:52.904Z,2.10
2023-04-08T11:16:22.018Z,1.95
2023-04-08T11:18:51.614Z,1.73
2023-04-08T11:21:33.658Z,2.60
2023-04-08T11:24:00.684Z,2.17
2023-04-08T11:26:27.929Z,2.38
2023-04-08T11:28:56.253Z,2.25
2023-04-08T11:31:26.267Z,2.30
2023-04-08T11:33:55.362Z,2.03
2023-04-08T11:36:25.415Z,1.88
2023-04-08T11:38:54.596Z,2.10
2023-04-08T11:41:22.619Z,2.17
2023-04-08T11:43:56.512Z,1.85
2023-04-08T11:46:26.591Z,1.80
2023-04-08T11:49:05.432Z,1.58
2023-04-08T11:51:36.256Z,1.40
2023-04-08T11:54:07.550Z,1.88
2023-04-08T11:56:46.821Z,1.70
2023-04-08T11:59:14.229Z,1.50
2023-04-08T12:01:41.470Z,1.30
2023-04-08T12:04:10.578Z,1.95
2023-04-08T12:06:38.040Z,1.60
2023-04-08T12:09:05.220Z,1.80
2023-04-08T12:11:32.502Z,1.40
2023-04-08T12:13:59.619Z,1.52
2023-04-08T12:16:33.050Z,1.35
2023-04-08T12:19:00.164Z,1.20
2023-04-08T12:21:28.014Z,1.55
2023-04-08T12:23:55.010Z,1.50
2023-04-08T12:26:22.005Z,1.35
2023-04-08T12:28:48.921Z,1.27
2023-04-08T12:31:16.095Z,1.30
2023-04-08T12:33:44.130Z,1.40
2023-04-08T12:36:13.412Z,1.27
2023-04-08T12:38:40.868Z,2.13
2023-04-08T12:41:08.223Z,1.75
2023-04-08T12:43:35.494Z,1.52
2023-04-08T12:46:03.387Z,1.58
2023-04-08T12:48:30.865Z,1.13
2023-04-08T12:50:58.928Z,1.25
2023-04-08T12:53:26.059Z,1.77
2023-04-08T12:55:57.549Z,1.48
2023-04-08T12:58:26.126Z,1.15
2023-04-08T13:00:53.127Z,1.08
2023-04-08T13:03:20.533Z,1.23
2023-04-08T13:05:47.832Z,1.48
2023-04-08T13:08:15.107Z,1.40
2023-04-08T13:10:55.015Z,1.25
2023-04-08T13:13:22.299Z,1.10
2023-04-08T13:15:49.671Z,1.15
2023-04-08T13:18:16.822Z,1.20
2023-04-08T13:20:43.949Z,1.70
2023-04-08T13:23:11.282Z,1.40
2023-04-08T13:25:41.261Z,1.52
2023-04-08T13:28:08.446Z,1.38
2023-04-08T13:30:35.617Z,1.83
2023-04-08T13:33:02.694Z,1.17
2023-04-08T13:35:30.248Z,1.75
2023-04-08T13:37:57.362Z,1.45
2023-04-08T13:40:24.503Z,1.80
2023-04-08T13:42:51.899Z,1.38
2023-04-08T13:45:19.564Z,1.30
2023-04-08T13:47:46.718Z,1.48
2023-04-08T13:50:14.069Z,1.35
2023-04-08T13:52:41.294Z,1.10
2023-04-08T13:55:08.550Z,1.40
2023-04-08T13:57:36.053Z,1.40
2023-04-08T14:00:03.900Z,1.35
2023-04-08T14:02:32.118Z,1.05
2023-04-08T14:05:00.909Z,1.58
2023-04-08T14:07:27.902Z,1.35
2023-04-08T14:09:54.964Z,1.73
2023-04-08T14:12:21.989Z,1.13
2023-04-08T14:14:48.936Z,1.50
2023-04-08T14:17:16.041Z,1.50
2023-04-08T14:19:43.242Z,1.48
2023-04-08T14:22:10.729Z,1.50
2023-04-08T14:24:37.719Z,1.25
2023-04-08T14:27:05.105Z,1.55
2023-04-08T14:29:32.101Z,1.52
2023-04-08T14:31:59.413Z,1.27
2023-04-08T14:34:26.597Z,1.60
2023-04-08T14:36:53.538Z,1.50
2023-04-08T14:39:20.587Z,1.30
2023-04-08T14:41:47.951Z,1.52
2023-04-08T14:44:14.957Z,1.73
2023-04-08T14:46:44.738Z,1.20
2023-04-08T14:49:11.960Z,1.38
2023-04-08T14:51:42.077Z,1.27
2023-04-08T14:54:10.800Z,1.52
2023-04-08T14:56:38.584Z,0.98
2023-04-08T14:59:06.160Z,1.30
2023-04-08T15:01:33.825Z,1.17
2023-04-08T15:04:01.121Z,1.00
2023-04-08T15:06:31.272Z,1.30
2023-04-08T15:09:03.827Z,1.20
2023-04-08T15:11:35.575Z,1.17
2023-04-08T15:14:02.738Z,1.23
2023-04-08T15:16:29.745Z,1.17
2023-04-08T15:19:00.184Z,2.05
2023-04-08T15:21:31.314Z,1.40
2023-04-08T15:23:58.309Z,1.38
2023-04-08T15:26:25.527Z,1.65
2023-04-08T15:28:54.545Z,2.30
2023-04-08T15:31:22.015Z,1.27
2023-04-08T15:33:49.168Z,1.23
2023-04-08T15:36:20.081Z,1.60
2023-04-08T15:38:47.903Z,2.25
2023-04-08T15:41:19.120Z,1.50
2023-04-08T15:43:46.536Z,1.80
2023-04-08T15:46:18.632Z,1.50
2023-04-08T15:48:46.183Z,1.65
2023-04-08T15:51:15.701Z,1.63
2023-04-08T15:53:42.963Z,1.33
2023-04-08T15:56:14.589Z,1.80
2023-04-08T15:58:41.983Z,1.50
2023-04-08T16:01:12.489Z,1.05
2023-04-08T16:03:39.768Z,1.73
2023-04-08T16:06:07.574Z,1.75
2023-04-08T16:08:34.919Z,1.60
2023-04-08T16:11:03.121Z,1.27
2023-04-08T16:13:32.746Z,1.77
2023-04-08T16:16:04.695Z,2.10
2023-04-08T16:18:31.725Z,1.45
2023-04-08T16:21:04.790Z,1.60
2023-04-08T16:23:31.978Z,1.80
2023-04-08T16:25:59.247Z,1.45
2023-04-08T16:28:27.969Z,1.67
2023-04-08T16:30:55.165Z,1.30
2023-04-08T16:33:30.089Z,1.40
2023-04-08T16:35:57.955Z,1.92
2023-04-08T16:38:25.594Z,1.20
2023-04-08T16:40:53.598Z,1.27
2023-04-08T16:43:23.574Z,1.63
2023-04-08T16:45:50.785Z,1.60
2023-04-08T16:48:20.469Z,1.27
2023-04-08T16:50:47.589Z,0.80
2023-04-08T16:53:14.695Z,1.40
2023-04-08T16:55:41.615Z,1.73
2023-04-08T17:01:34.561Z,1.48
2023-04-08T17:04:07.874Z,1.50
2023-04-08T17:09:44.393Z,1.55
2023-04-08T17:19:15.756Z,1.38
2023-04-08T17:21:43.998Z,1.58
2023-04-08T17:24:11.169Z,2.00
2023-04-08T17:26:38.333Z,1.48
2023-04-08T17:29:05.696Z,1.15
2023-04-08T17:31:36.459Z,1.20
2023-04-08T17:34:07.141Z,1.85
2023-04-08T17:36:36.719Z,2.08
2023-04-08T17:39:03.719Z,1.20
2023-04-08T17:41:45.357Z,1.92
2023-04-08T17:44:52.958Z,1.67
2023-04-08T17:47:32.779Z,1.10
2023-04-08T17:50:00.019Z,1.98
2023-04-08T17:52:27.144Z,1.70
2023-04-08T17:54:54.357Z,1.50
2023-04-08T17:57:21.688Z,1.30
2023-04-08T17:59:54.578Z,1.30
2023-04-08T18:02:22.077Z,1.30
2023-04-08T18:04:50.656Z,1.10
2023-04-08T18:07:17.588Z,1.30
2023-04-08T18:09:46.219Z,1.23
2023-04-08T18:12:13.270Z,1.38
2023-04-08T18:14:40.298Z,1.25
2023-04-08T18:17:07.674Z,1.10
2023-04-08T18:19:34.820Z,1.58
2023-04-08T18:22:01.818Z,1.42
2023-04-08T18:24:29.012Z,1.60
2023-04-08T18:27:04.083Z,1.40
2023-04-08T18:29:31.931Z,1.83
2023-04-08T18:31:58.944Z,1.63
2023-04-08T18:34:26.788Z,1.60
2023-04-08T18:36:53.979Z,1.58
2023-04-08T18:39:21.047Z,1.92
2023-04-08T18:41:48.036Z,1.38
2023-04-08T18:44:15.032Z,1.63
2023-04-08T18:46:42.261Z,1.70
2023-04-08T18:49:09.388Z,1.33
2023-04-08T18:51:36.333Z,1.30
2023-04-08T18:54:03.311Z,1.42
2023-04-08T18:56:30.672Z,1.30
2023-04-08T18:58:58.525Z,1.80
2023-04-08T19:01:35.180Z,1.77
2023-04-08T19:04:02.364Z,1.73
2023-04-08T19:06:29.609Z,2.08
2023-04-08T19:08:59.791Z,1.52
2023-04-08T19:11:32.158Z,2.03
2023-04-08T19:13:59.233Z,2.22
2023-04-08T19:16:26.619Z,1.67
2023-04-08T19:18:54.984Z,1.60
2023-04-08T19:21:22.385Z,1.98
2023-04-08T19:23:49.800Z,1.77
2023-04-08T19:26:17.444Z,2.13
2023-04-08T19:28:44.511Z,1.88
2023-04-08T19:31:20.588Z,2.00
2023-04-08T19:33:47.988Z,1.83
2023-04-08T19:36:15.046Z,1.80
2023-04-08T19:38:42.234Z,1.88
2023-04-08T19:41:09.310Z,2.03
2023-04-08T19:43:38.816Z,2.55
2023-04-08T19:46:05.999Z,2.38
2023-04-08T19:48:34.203Z,2.80
2023-04-08T19:51:01.246Z,2.63
2023-04-08T19:53:28.216Z,2.03
2023-04-08T19:56:01.988Z,2.90
2023-04-08T19:58:29.083Z,3.10
2023-04-08T20:01:12.577Z,3.00
2023-04-08T20:03:43.539Z,3.45
2023-04-08T20:06:10.651Z,3.78
2023-04-08T20:08:37.709Z,3.80
2023-04-08T20:11:04.839Z,3.30
2023-04-08T20:13:33.883Z,3.22
2023-04-08T20:16:00.980Z,4.10
2023-04-08T20:18:28.702Z,3.70
2023-04-08T20:20:56.780Z,3.53
2023-04-08T20:23:24.537Z,2.92
2023-04-08T20:25:51.599Z,3.53
2023-04-08T20:28:18.964Z,3.75
2023-04-08T20:30:46.518Z,3.45
2023-04-08T20:33:14.267Z,3.97
2023-04-08T20:35:41.636Z,4.63
2023-04-08T20:38:08.860Z,3.67
2023-04-08T20:40:39.194Z,3.67
2023-04-08T20:43:06.382Z,3.85
2023-04-08T20:45:33.830Z,3.40
2023-04-08T20:48:01.001Z,3.95
2023-04-08T20:50:28.768Z,3.58
2023-04-08T20:52:55.822Z,4.68
2023-04-08T20:55:25.907Z,3.92
2023-04-08T20:57:55.595Z,3.80
2023-04-08T21:00:25.101Z,3.80
2023-04-08T21:02:52.807Z,4.10
2023-04-08T21:05:19.848Z,3.40
2023-04-08T21:07:46.813Z,4.68
2023-04-08T21:10:14.556Z,4.05
2023-04-08T21:12:41.497Z,3.97
2023-04-08T21:15:08.955Z,3.72
2023-04-08T21:17:36.078Z,4.00
2023-04-08T21:20:33.581Z,4.75
2023-04-08T21:23:07.688Z,5.28
2023-04-08T21:25:34.888Z,4.45
2023-04-08T21:28:01.856Z,5.18
2023-04-08T21:30:28.879Z,4.97
2023-04-08T21:32:56.006Z,5.68
2023-04-08T21:35:26.139Z,6.78
2023-04-08T21:37:53.120Z,5.55
2023-04-08T21:40:20.222Z,7.20
2023-04-08T21:42:49.838Z,6.85
2023-04-08T21:45:17.119Z,6.53
2023-04-08T21:47:44.352Z,5.68
2023-04-08T21:50:11.511Z,7.20
2023-04-08T21:52:38.574Z,7.35
2023-04-08T21:55:06.829Z,7.20
2023-04-08T21:57:34.020Z,7.20
2023-04-08T22:00:01.293Z,6.97
2023-04-08T22:02:28.652Z,7.03
2023-04-08T22:04:55.768Z,6.70
2023-04-08T22:07:23.823Z,7.82
2023-04-08T22:09:50.885Z,8.02
2023-04-08T22:12:17.915Z,8.38
2023-04-08T22:14:45.115Z,6.80
2023-04-08T22:17:12.732Z,7.50
2023-04-08T22:19:39.850Z,8.30
2023-04-08T22:22:07.042Z,7.50
2023-04-08T22:24:34.320Z,8.95
2023-04-08T22:27:01.571Z,7.93
2023-04-08T22:29:31.775Z,8.25
2023-04-08T22:31:58.681Z,7.63
2023-04-08T22:34:25.904Z,7.82
2023-04-08T22:36:55.422Z,8.20
2023-04-08T22:39:22.481Z,8.18
2023-04-08T22:41:49.425Z,7.82
2023-04-08T22:44:16.682Z,7.82
2023-04-08T22:46:43.708Z,7.80
2023-04-08T22:49:13.462Z,7.55
2023-04-08T22:51:40.891Z,7.43
2023-04-08T22:54:08.079Z,8.13
2023-04-08T22:56:35.283Z,8.13
2023-04-08T22:59:02.441Z,9.25
2023-04-08T23:01:32.002Z,8.68
2023-04-08T23:03:59.146Z,9.48
2023-04-08T23:06:27.407Z,7.80
2023-04-08T23:08:54.725Z,7.55
2023-04-08T23:11:21.988Z,8.07
2023-04-08T23:13:52.288Z,8.13
2023-04-08T23:16:22.165Z,8.43
2023-04-08T23:18:49.439Z,8.05
2023-04-08T23:21:16.656Z,7.82
2023-04-08T23:23:48.962Z,8.75
2023-04-08T23:26:19.545Z,7.68
2023-04-08T23:28:46.576Z,8.63
2023-04-08T23:31:13.782Z,8.05
2023-04-08T23:33:43.828Z,9.82
2023-04-08T23:36:14.256Z,6.80
2023-04-08T23:38:41.452Z,8.43
2023-04-08T23:41:08.544Z,7.78
2023-04-08T23:43:36.184Z,8.65
2023-04-08T23:46:03.217Z,8.15
2023-04-08T23:48:30.418Z,8.35
2023-04-08T23:51:02.946Z,9.90
2023-04-08T23:53:30.043Z,8.57
2023-04-08T23:56:04.860Z,8.80
2023-04-08T23:58:35.121Z,9.52
